Time;durP1;ratioP1;P1;durP2;ratioP2;P2;SDS_P1;SDS_P2;PMS_P1;PMS_P2;Temp;Humidity;BMP_temperature;BMP_pressure;BME280_temperature;BME280_humidity;BME280_pressure;Samples;Min_cycle;Max_cycle;Signal;HPM_P1;HPM_P2
2022/10/25 00:03:56;;;;;;;;;;;11.00;99.90;;;9.92;100.00;95960.47;10534370;28;1168;-73
2022/10/25 00:08:59;;;;;;;;;;;11.00;99.90;;;9.83;100.00;95962.06;10532314;28;1979;-71
2022/10/25 00:14:02;;;;;;;;;;;10.90;99.90;;;9.78;100.00;95961.22;10532913;28;1434;-71
2022/10/25 00:19:05;;;;;;;;;;;10.90;99.90;;;9.72;100.00;95958.53;10532048;28;1207;-71
2022/10/25 00:24:09;;;;;;;;;;;10.80;99.90;;;9.64;100.00;95950.97;10521974;28;1649;-72
2022/10/25 00:29:11;;;;;;;;;;;10.80;99.90;;;9.64;100.00;95956.34;10525908;28;1922;-73
2022/10/25 00:34:14;;;;;;;;;;;10.80;99.90;;;9.59;100.00;95959.00;10533306;28;1193;-72
2022/10/25 00:39:17;;;;;;;;;;;10.70;99.90;;;9.59;100.00;95956.31;10532051;28;1675;-72
2022/10/25 00:44:19;;;;;;;;;;;10.70;99.90;;;9.58;100.00;95952.03;10534229;28;1259;-72
2022/10/25 00:49:22;;;;;;;;;;;10.70;99.90;;;9.54;100.00;95956.31;10527018;28;1906;-73
2022/10/25 00:54:25;;;;;;;;;;;10.60;99.90;;;9.52;100.00;95947.72;10534069;28;1712;-72
2022/10/25 00:59:27;;;;;;;;;;;10.60;99.90;;;9.44;100.00;95957.06;10532201;28;1469;-72
2022/10/25 01:04:30;;;;;;;;;;;10.50;99.90;;;9.48;100.00;95952.00;10532628;28;1181;-72
2022/10/25 01:09:33;;;;;;;;;;;10.60;99.90;;;9.56;100.00;95946.13;10524131;28;1965;-72
2022/10/25 01:14:36;;;;;;;;;;;10.60;99.90;;;9.60;100.00;95936.47;10530710;28;1775;-72
2022/10/25 01:19:39;;;;;;;;;;;10.60;99.90;;;9.71;100.00;95935.44;10538001;28;1125;-72
2022/10/25 01:24:42;;;;;;;;;;;10.70;99.90;;;9.65;100.00;95933.81;10527577;28;1637;-71
2022/10/25 01:29:44;;;;;;;;;;;10.60;99.90;;;9.59;100.00;95924.13;10525590;28;1938;-73
2022/10/25 01:34:47;;;;;;;;;;;10.70;99.90;;;9.54;100.00;95921.41;10533070;28;1240;-74
2022/10/25 01:39:50;;;;;;;;;;;10.60;99.90;;;9.46;100.00;95921.94;10534363;28;1656;-73
2022/10/25 01:44:54;;;;;;;;;;;10.50;99.90;;;9.41;100.00;95921.91;10535522;28;1585;-72
2022/10/25 01:49:57;;;;;;;;;;;10.50;99.90;;;9.27;100.00;95918.91;10539793;28;1939;-77
2022/10/25 01:55:00;;;;;;;;;;;10.40;99.90;;;9.27;100.00;95920.78;10534276;28;1588;-75
2022/10/25 02:00:03;;;;;;;;;;;10.40;99.90;;;9.28;100.00;95925.06;10523363;28;1395;-75
2022/10/25 02:05:05;;;;;;;;;;;10.30;99.90;;;9.32;100.00;95931.53;10539167;28;1656;-72
2022/10/25 02:10:08;;;;;;;;;;;10.30;99.90;;;9.42;100.00;95926.22;10543450;28;1984;-73
2022/10/25 02:15:11;;;;;;;;;;;10.30;99.90;;;9.65;100.00;95928.44;10545485;28;1616;-76
2022/10/25 02:20:13;;;;;;;;;;;10.50;99.90;;;9.79;100.00;95930.63;10566702;28;1168;-73
2022/10/25 02:25:16;;;;;;;;;;;10.70;99.90;;;9.88;100.00;95929.06;10540239;28;1572;-73
2022/10/25 02:30:25;;;;;;;;;;;10.80;99.90;;;9.99;100.00;95928.81;10527972;28;1914;-73
2022/10/25 02:35:27;;;;;;;;;;;10.80;99.90;;;10.05;100.00;95945.72;10534295;28;1522;-73
2022/10/25 02:40:30;;;;;;;;;;;10.90;99.90;;;10.03;100.00;95937.94;10537428;28;1137;-72
2022/10/25 02:45:32;;;;;;;;;;;11.00;99.90;;;10.17;100.00;95938.22;10537042;28;1497;-73
2022/10/25 02:50:35;;;;;;;;;;;11.10;99.90;;;10.33;100.00;95936.41;10538659;28;1968;-74
2022/10/25 02:55:38;;;;;;;;;;;11.20;99.90;;;10.40;100.00;95925.38;10530354;28;1699;-77
2022/10/25 03:00:41;;;;;;;;;;;11.20;99.90;;;10.43;100.00;95930.22;10533369;28;1707;-73
2022/10/25 03:05:43;;;;;;;;;;;11.30;99.90;;;10.49;100.00;95942.56;10537221;28;1565;-77
2022/10/25 03:10:46;;;;;;;;;;;11.30;99.90;;;10.43;100.00;95943.66;10532334;28;1979;-76
2022/10/25 03:15:49;;;;;;;;;;;11.40;99.90;;;10.45;100.00;95938.81;10535143;28;1636;-72
2022/10/25 03:20:51;;;;;;;;;;;11.40;99.90;;;10.47;100.00;95937.47;10536376;28;1098;-72
2022/10/25 03:25:54;;;;;;;;;;;11.40;99.90;;;10.47;100.00;95937.47;10529876;28;1561;-72
2022/10/25 03:30:57;;;;;;;;;;;11.40;99.90;;;10.44;100.00;95947.97;10527629;28;1914;-73
2022/10/25 03:35:59;;;;;;;;;;;11.40;99.90;;;10.36;100.00;95946.59;10529995;28;1630;-72
2022/10/25 03:41:03;;;;;;;;;;;11.30;99.90;;;10.37;100.00;95953.63;10533498;28;1106;-72
2022/10/25 03:46:06;;;;;;;;;;;11.30;99.90;;;10.43;100.00;95954.41;10527007;28;1667;-72
2022/10/25 03:51:09;;;;;;;;;;;11.40;99.90;;;10.48;100.00;95963.28;10534922;28;1906;-72
2022/10/25 03:56:11;;;;;;;;;;;11.40;99.90;;;10.54;100.00;95967.56;10533188;28;1704;-71
2022/10/25 04:01:14;;;;;;;;;;;11.50;99.90;;;10.45;100.00;95961.13;10526290;28;1655;-72
2022/10/25 04:06:17;;;;;;;;;;;11.40;99.90;;;10.38;100.00;95960.59;10527115;28;1676;-72
2022/10/25 04:11:20;;;;;;;;;;;11.40;99.90;;;10.35;100.00;95968.38;10526393;28;1914;-72
2022/10/25 04:16:22;;;;;;;;;;;11.40;99.90;;;10.25;100.00;95974.56;10526042;28;1549;-72
2022/10/25 04:21:25;;;;;;;;;;;11.30;99.90;;;10.14;100.00;95981.75;10540117;28;1592;-72
2022/10/25 04:26:28;;;;;;;;;;;11.20;99.90;;;10.06;100.00;95968.84;10533461;28;1470;-73
2022/10/25 04:31:30;;;;;;;;;;;11.10;99.90;;;10.02;100.00;95962.38;10530848;28;1910;-72
2022/10/25 04:36:33;;;;;;;;;;;11.10;99.90;;;10.00;100.00;95953.78;10527447;28;1533;-72
2022/10/25 04:41:36;;;;;;;;;;;11.10;99.90;;;9.90;100.00;95964.50;10534217;28;1200;-72
2022/10/25 04:46:38;;;;;;;;;;;11.00;99.90;;;9.81;100.00;95972.25;10533062;28;1668;-74
2022/10/25 04:51:41;;;;;;;;;;;11.00;99.90;;;9.78;100.00;95971.97;10532704;28;2027;-73
2022/10/25 04:56:44;;;;;;;;;;;10.90;99.90;;;9.63;100.00;95973.53;10530631;28;1465;-73
2022/10/25 05:01:47;;;;;;;;;;;10.80;99.90;;;9.58;100.00;95978.88;10531539;28;1154;-73
2022/10/25 05:06:50;;;;;;;;;;;10.70;99.90;;;9.55;100.00;95981.28;10535341;28;1671;-72
2022/10/25 05:11:52;;;;;;;;;;;10.70;99.90;;;9.51;100.00;95983.69;10537400;28;1915;-72
2022/10/25 05:16:55;;;;;;;;;;;10.70;99.90;;;9.66;100.00;95989.09;10528132;28;1635;-73
2022/10/25 05:21:57;;;;;;;;;;;10.70;99.90;;;9.65;100.00;95987.47;10533980;28;1086;-76
2022/10/25 05:27:00;;;;;;;;;;;10.70;99.90;;;9.63;100.00;95978.91;10520693;28;1580;-73
2022/10/25 05:32:03;;;;;;;;;;;10.70;99.90;;;9.69;100.00;95990.47;10538881;28;1938;-76
2022/10/25 05:37:13;;;;;;;;;;;10.60;99.90;;;9.68;100.00;95988.84;10540464;28;1687;-76
2022/10/25 05:42:16;;;;;;;;;;;10.80;99.90;;;9.80;100.00;95992.13;10521042;28;2029;-74
2022/10/25 05:47:19;;;;;;;;;;;10.70;99.90;;;9.92;100.00;96005.31;10534035;28;2008;-73
2022/10/25 05:52:23;;;;;;;;;;;10.80;99.90;;;10.09;100.00;96003.22;10539838;28;1635;-73
2022/10/25 05:57:26;;;;;;;;;;;11.00;99.90;;;10.21;100.00;95998.41;10528272;28;2042;-74
2022/10/25 06:02:28;;;;;;;;;;;11.00;99.90;;;10.32;100.00;96007.34;10541277;28;1138;-75
2022/10/25 06:07:31;;;;;;;;;;;11.10;99.90;;;10.38;100.00;96013.53;10541355;28;1965;-73
2022/10/25 06:12:34;;;;;;;;;;;11.20;99.90;;;10.52;100.00;96009.25;10538674;28;1278;-74
2022/10/25 06:17:38;;;;;;;;;;;11.40;99.90;;;10.65;100.00;96024.03;10523064;28;2002;-72
2022/10/25 06:22:40;;;;;;;;;;;11.50;99.90;;;10.71;100.00;96028.34;10536096;28;1568;-73
2022/10/25 06:27:43;;;;;;;;;;;11.50;99.90;;;10.69;100.00;96035.88;10525976;28;1914;-74
2022/10/25 06:32:46;;;;;;;;;;;11.60;99.90;;;10.57;100.00;96044.22;10540126;28;1177;-78
2022/10/25 06:37:49;;;;;;;;;;;11.60;99.90;;;10.57;100.00;96044.22;10536703;28;1680;-75
2022/10/25 06:42:55;;;;;;;;;;;11.60;99.90;;;10.45;100.00;96047.13;10538405;28;1282;-72
2022/10/25 06:47:57;;;;;;;;;;;11.50;99.90;;;10.42;100.00;96054.91;10528384;28;1980;-73
2022/10/25 06:53:00;;;;;;;;;;;11.40;99.90;;;10.35;100.00;96052.47;10538575;28;1485;-73
2022/10/25 06:58:03;;;;;;;;;;;11.40;99.90;;;10.40;100.00;96054.38;10529021;28;1572;-72
2022/10/25 07:03:05;;;;;;;;;;;11.40;99.90;;;10.51;100.00;96056.03;10537589;28;1169;-73
2022/10/25 07:08:08;;;;;;;;;;;11.40;99.90;;;10.55;100.00;96052.50;10528540;28;1910;-73
2022/10/25 07:13:11;;;;;;;;;;;11.40;99.90;;;10.68;100.00;96056.56;10537161;28;1058;-73
2022/10/25 07:18:13;;;;;;;;;;;11.50;99.90;;;10.86;100.00;96067.88;10536433;28;1565;-74
2022/10/25 07:23:16;;;;;;;;;;;11.60;99.90;;;11.05;100.00;96063.59;10537679;28;1129;-71
2022/10/25 07:28:19;;;;;;;;;;;11.90;99.90;;;11.24;100.00;96074.63;10534965;28;1968;-73
2022/10/25 07:33:22;;;;;;;;;;;12.00;99.90;;;11.45;100.00;96080.78;10514092;28;1812;-73
2022/10/25 07:38:25;;;;;;;;;;;12.20;99.90;;;11.67;100.00;96078.59;10534495;28;1723;-73
2022/10/25 07:43:29;;;;;;;;;;;11.90;99.90;;;12.06;100.00;96069.88;10530750;28;1710;-72
2022/10/25 07:48:32;;;;;;;;;;;12.60;99.90;;;12.71;100.00;96070.63;10534959;28;1976;-73
2022/10/25 07:53:34;;;;;;;;;;;13.10;99.90;;;13.30;100.00;96075.09;10532455;28;1613;-73
2022/10/25 07:58:37;;;;;;;;;;;13.50;99.90;;;13.83;100.00;96072.41;10533989;28;1592;-73
2022/10/25 08:03:40;;;;;;;;;;;14.10;99.90;;;13.93;100.00;96064.22;10536385;28;1158;-73
2022/10/25 08:08:42;;;;;;;;;;;14.30;99.90;;;14.24;100.00;96055.72;10536887;28;1909;-73
2022/10/25 08:13:45;;;;;;;;;;;14.60;99.90;;;14.49;100.00;96055.41;10537763;28;1177;-73
2022/10/25 08:18:48;;;;;;;;;;;14.90;99.90;;;14.76;100.00;96053.97;10535155;28;1789;-74
2022/10/25 08:23:51;;;;;;;;;;;15.20;99.90;;;15.22;100.00;96050.56;10529367;28;1655;-73
2022/10/25 08:28:53;;;;;;;;;;;15.50;99.90;;;15.09;100.00;96047.50;10526063;28;1984;-73
2022/10/25 08:33:56;;;;;;;;;;;15.60;99.90;;;15.01;100.00;96053.56;10533549;28;1180;-72
2022/10/25 08:39:01;;;;;;;;;;;15.70;99.90;;;14.47;100.00;96063.03;10529786;28;1672;-74
2022/10/25 08:44:04;;;;;;;;;;;15.40;99.90;;;14.36;100.00;96055.31;10534269;28;866;-72
2022/10/25 08:49:07;;;;;;;;;;;15.10;99.90;;;14.52;100.00;96056.75;10547435;28;1928;-73
2022/10/25 08:54:10;;;;;;;;;;;15.20;99.90;;;14.47;100.00;96056.81;10534882;28;1227;-72
2022/10/25 08:59:13;;;;;;;;;;;15.20;99.90;;;14.34;100.00;96058.31;10525383;28;1695;-73
2022/10/25 09:04:15;;;;;;;;;;;15.20;99.90;;;14.25;100.00;96068.13;10534453;28;1122;-73
2022/10/25 09:09:18;;;;;;;;;;;15.10;99.90;;;14.42;100.00;96065.75;10524964;28;1981;-73
2022/10/25 09:14:21;;;;;;;;;;;15.20;99.90;;;14.59;100.00;96055.28;10529918;28;1628;-73
2022/10/25 09:19:24;;;;;;;;;;;15.30;99.90;;;14.68;100.00;96055.44;10532606;28;1192;-73
2022/10/25 09:24:27;;;;;;;;;;;15.40;99.90;;;14.78;100.00;96052.59;10526613;28;1750;-74
2022/10/25 09:29:29;;;;;;;;;;;15.40;99.90;;;14.84;100.00;96053.31;10524907;28;1906;-72
2022/10/25 09:34:32;;;;;;;;;;;15.60;99.90;;;14.84;100.00;96043.28;10533310;28;1142;-71
2022/10/25 09:39:35;;;;;;;;;;;15.70;99.90;;;14.93;100.00;96050.75;10535445;28;1636;-73
2022/10/25 09:44:38;;;;;;;;;;;15.70;99.90;;;14.95;100.00;96046.66;10527156;28;1742;-74
2022/10/25 09:49:40;;;;;;;;;;;15.70;99.90;;;15.12;100.00;96056.94;10533226;28;1910;-73
2022/10/25 09:54:43;;;;;;;;;;;15.70;99.90;;;15.06;100.00;96058.09;10531980;28;1461;-77
2022/10/25 09:59:45;;;;;;;;;;;15.80;99.90;;;15.06;100.00;96064.31;10524510;28;1624;-77
2022/10/25 10:04:48;;;;;;;;;;;15.90;99.90;;;15.00;100.00;96057.38;10532186;28;1002;-73
2022/10/25 10:09:51;;;;;;;;;;;15.80;99.90;;;15.07;100.00;96055.09;10532874;28;1917;-75
2022/10/25 10:14:55;;;;;;;;;;;15.80;99.90;;;15.11;100.00;96055.31;10532189;28;1676;-75
2022/10/25 10:19:57;;;;;;;;;;;15.90;99.90;;;15.08;100.00;96051.31;10541323;28;1189;-74
2022/10/25 10:25:00;;;;;;;;;;;15.90;99.90;;;15.25;100.00;96055.38;10537720;28;1600;-75
2022/10/25 10:30:02;;;;;;;;;;;15.90;99.90;;;15.41;100.00;96049.41;10528496;28;1914;-75
2022/10/25 10:35:05;;;;;;;;;;;16.00;99.90;;;15.44;100.00;96037.16;10539492;28;1185;-75
2022/10/25 10:40:07;;;;;;;;;;;16.10;99.90;;;15.49;100.00;96028.94;10538129;28;1718;-74
2022/10/25 10:45:11;;;;;;;;;;;16.20;99.90;;;15.57;100.00;96030.97;10537377;28;1101;-75
2022/10/25 10:50:13;;;;;;;;;;;16.20;99.90;;;15.75;100.00;96031.22;10531137;28;1992;-75
2022/10/25 10:55:20;;;;;;;;;;;16.40;99.90;;;16.26;100.00;96027.50;10536658;28;1489;-75
2022/10/25 11:00:22;;;;;;;;;;;16.60;99.90;;;16.69;100.00;96022.50;10537223;28;1497;-73
2022/10/25 11:05:25;;;;;;;;;;;17.00;99.90;;;16.92;100.00;96012.47;10539281;28;1831;-74
2022/10/25 11:10:28;;;;;;;;;;;17.30;99.90;;;17.39;99.88;96011.06;10539963;28;1905;-73
2022/10/25 11:15:32;;;;;;;;;;;17.80;99.90;;;17.73;96.49;96015.09;10544431;28;1573;-73
2022/10/25 11:20:35;;;;;;;;;;;18.10;99.90;;;17.69;96.76;96004.03;10545943;28;971;-73
2022/10/25 11:25:38;;;;;;;;;;;18.30;99.90;;;17.50;96.65;96006.16;10533972;28;1664;-73
2022/10/25 11:30:41;;;;;;;;;;;18.20;99.90;;;17.36;98.48;95995.34;10528857;28;1977;-73
2022/10/25 11:35:44;;;;;;;;;;;18.20;99.90;;;17.39;95.24;95993.94;10532596;28;1497;-73
2022/10/25 11:40:46;;;;;;;;;;;18.10;99.90;;;17.14;95.94;95990.75;10537136;28;1126;-73
2022/10/25 11:45:50;;;;;;;;;;;18.00;99.90;;;16.90;97.91;95991.06;10536464;28;1628;-71
2022/10/25 11:50:53;;;;;;;;;;;17.90;99.90;;;16.62;98.83;95978.69;10538167;28;1909;-73
2022/10/25 11:55:56;;;;;;;;;;;17.60;99.90;;;16.30;100.00;95974.25;10534415;28;1501;-73
2022/10/25 12:00:58;;;;;;;;;;;17.30;99.90;;;16.23;100.00;95979.31;10533619;28;1497;-73
2022/10/25 12:06:01;;;;;;;;;;;17.00;99.90;;;16.35;96.87;95979.56;10533111;28;1711;-73
2022/10/25 12:11:04;;;;;;;;;;;17.00;99.90;;;16.53;95.28;95975.09;10535047;28;1922;-74
2022/10/25 12:16:07;;;;;;;;;;;17.10;99.90;;;16.96;90.24;95975.47;10534317;28;1612;-72
2022/10/25 12:21:09;;;;;;;;;;;17.50;99.90;;;17.26;85.78;95971.97;10534606;28;1093;-74
2022/10/25 12:26:13;;;;;;;;;;;17.70;99.90;;;17.21;88.86;95969.38;10532943;28;1659;-72
2022/10/25 12:31:15;;;;;;;;;;;17.80;99.90;;;17.24;86.36;95963.34;10526636;28;1910;-73
2022/10/25 12:36:18;;;;;;;;;;;17.90;99.90;;;17.17;84.07;95956.72;10504066;28;1692;-73
2022/10/25 12:41:21;;;;;;;;;;;17.90;99.90;;;17.14;85.92;95958.16;10525476;28;1138;-73
2022/10/25 12:46:23;;;;;;;;;;;17.90;99.90;;;17.34;83.77;95958.75;10532097;28;1679;-73
2022/10/25 12:51:26;;;;;;;;;;;17.90;99.90;;;17.19;85.13;95959.97;10533563;28;1965;-72
2022/10/25 12:56:29;;;;;;;;;;;18.00;99.90;;;17.26;85.69;95952.16;10528140;28;1699;-73
2022/10/25 13:01:31;;;;;;;;;;;17.90;99.90;;;17.21;87.07;95947.66;10527871;28;1167;-75
2022/10/25 13:06:34;;;;;;;;;;;18.00;99.90;;;16.89;90.35;95950.66;10532539;28;1676;-74
2022/10/25 13:11:37;;;;;;;;;;;17.80;99.90;;;16.71;92.31;95947.00;10533805;28;1902;-73
2022/10/25 13:16:39;;;;;;;;;;;17.60;99.90;;;16.52;90.68;95947.16;10533618;28;1647;-74
2022/10/25 13:21:42;;;;;;;;;;;17.40;99.90;;;16.57;91.89;95948.94;10531609;28;1632;-72
2022/10/25 13:26:45;;;;;;;;;;;17.40;99.90;;;16.48;92.09;95940.75;10531830;28;1512;-74
2022/10/25 13:31:47;;;;;;;;;;;17.40;99.90;;;16.58;91.06;95934.28;10529767;28;1989;-75
2022/10/25 13:36:50;;;;;;;;;;;17.40;99.90;;;16.70;90.98;95939.97;10526967;28;1488;-73
2022/10/25 13:41:53;;;;;;;;;;;17.50;99.90;;;16.71;89.54;95934.25;10495043;28;1125;-75
2022/10/25 13:46:56;;;;;;;;;;;17.60;99.90;;;16.58;90.10;95935.06;10519658;28;1596;-72
2022/10/25 13:51:58;;;;;;;;;;;17.40;99.90;;;16.54;85.99;95928.69;10538755;28;1918;-73
2022/10/25 13:57:01;;;;;;;;;;;17.40;99.90;;;16.47;85.20;95928.28;10535288;28;1490;-73
2022/10/25 14:02:04;;;;;;;;;;;17.40;99.90;;;16.34;87.03;95926.41;10541467;28;1101;-74
2022/10/25 14:07:07;;;;;;;;;;;17.20;99.90;;;16.26;90.01;95932.56;10546331;28;1713;-75
2022/10/25 14:12:10;;;;;;;;;;;17.10;99.90;;;16.31;89.73;95932.47;10540582;28;2227;-73
2022/10/25 14:17:20;;;;;;;;;;;17.10;99.90;;;16.16;91.56;95917.34;10543395;28;1695;-74
2022/10/25 14:22:26;;;;;;;;;;;17.10;99.90;;;16.18;90.73;95918.63;10542948;28;947;-73
2022/10/25 14:27:34;;;;;;;;;;;17.10;99.90;;;16.08;90.96;95912.63;10524881;28;1700;-74
2022/10/25 14:32:37;;;;;;;;;;;17.00;99.90;;;16.03;91.48;95918.97;10539121;28;1902;-74
2022/10/25 14:37:39;;;;;;;;;;;17.00;99.90;;;15.93;94.07;95913.75;10537524;28;1568;-75
2022/10/25 14:42:42;;;;;;;;;;;16.90;99.90;;;16.01;89.57;95918.47;10535012;28;1807;-72
2022/10/25 14:47:45;;;;;;;;;;;16.80;99.90;;;15.80;91.04;95917.28;10533534;28;1090;-73
2022/10/25 14:52:48;;;;;;;;;;;16.80;99.90;;;15.81;93.52;95921.59;10536912;28;1917;-74
2022/10/25 14:57:52;;;;;;;;;;;16.70;99.90;;;15.72;93.22;95909.88;10536189;28;1506;-72
2022/10/25 15:02:54;;;;;;;;;;;16.60;99.90;;;15.68;93.94;95907.75;10537274;28;1160;-73
2022/10/25 15:07:57;;;;;;;;;;;16.60;99.90;;;15.51;94.04;95910.25;10529204;28;1727;-73
2022/10/25 15:13:00;;;;;;;;;;;15.90;99.90;;;15.42;95.89;95917.47;10537702;28;1981;-73
2022/10/25 15:18:03;;;;;;;;;;;16.40;99.90;;;15.23;96.27;95908.63;10525505;28;1758;-74
2022/10/25 15:23:05;;;;;;;;;;;16.30;99.90;;;15.19;97.78;95910.34;10534254;28;1695;-73
2022/10/25 15:28:08;;;;;;;;;;;16.20;99.90;;;15.01;100.00;95910.09;10528254;28;1470;-74
2022/10/25 15:33:11;;;;;;;;;;;16.10;99.90;;;14.87;100.00;95909.28;10540610;28;1917;-73
2022/10/25 15:38:16;;;;;;;;;;;15.90;99.90;;;14.89;100.00;95904.38;10534404;28;1675;-73
2022/10/25 15:43:18;;;;;;;;;;;15.80;99.90;;;14.77;100.00;95909.47;10542817;28;1624;-73
2022/10/25 15:48:21;;;;;;;;;;;15.70;99.90;;;14.64;100.00;95904.81;10527317;28;1220;-72
2022/10/25 15:53:24;;;;;;;;;;;15.70;99.90;;;14.55;100.00;95910.06;10545723;28;1909;-72
2022/10/25 15:58:32;;;;;;;;;;;15.60;99.90;;;14.24;100.00;95915.91;10528063;28;1549;-74
2022/10/25 16:03:34;;;;;;;;;;;15.50;99.90;;;14.00;100.00;95907.91;10535492;28;1192;-72
2022/10/25 16:08:37;;;;;;;;;;;15.30;99.90;;;13.91;100.00;95908.84;10537161;28;1684;-73
2022/10/25 16:13:40;;;;;;;;;;;15.10;99.90;;;13.71;100.00;95921.53;10536548;28;1981;-73
2022/10/25 16:18:42;;;;;;;;;;;14.90;99.90;;;13.62;100.00;95919.78;10536614;28;1110;-74
2022/10/25 16:23:45;;;;;;;;;;;14.70;99.90;;;13.45;100.00;95918.31;10533729;28;1648;-72
2022/10/25 16:28:48;;;;;;;;;;;14.50;99.90;;;13.33;100.00;95925.22;10522168;28;1453;-74
2022/10/25 16:33:50;;;;;;;;;;;14.50;99.90;;;13.18;100.00;95931.56;10535807;28;1921;-73
2022/10/25 16:38:53;;;;;;;;;;;14.30;99.90;;;13.06;100.00;95931.97;10525920;28;1719;-72
2022/10/25 16:43:56;;;;;;;;;;;14.10;99.90;;;12.88;100.00;95930.78;10529273;28;1743;-75
2022/10/25 16:48:58;;;;;;;;;;;14.00;99.90;;;12.91;100.00;95930.19;10531489;28;1130;-75
2022/10/25 16:54:03;;;;;;;;;;;14.00;99.90;;;12.82;100.00;95939.19;10527359;28;1914;-73
2022/10/25 16:59:06;;;;;;;;;;;13.90;99.90;;;12.74;100.00;95943.31;10526938;28;1482;-74
2022/10/25 17:04:09;;;;;;;;;;;13.80;99.90;;;12.57;100.00;95954.50;10537186;28;1137;-74
2022/10/25 17:09:11;;;;;;;;;;;13.70;99.90;;;12.44;100.00;95953.25;10532086;28;1664;-74
2022/10/25 17:14:14;;;;;;;;;;;13.60;99.90;;;12.42;100.00;95952.72;10530098;28;1918;-74
2022/10/25 17:19:17;;;;;;;;;;;13.60;99.90;;;12.38;100.00;95951.66;10536580;28;1159;-73
2022/10/25 17:24:24;;;;;;;;;;;13.50;99.90;;;12.27;100.00;95952.81;10523229;28;1694;-74
2022/10/25 17:29:30;;;;;;;;;;;13.40;99.90;;;12.16;100.00;95953.97;10533358;28;1475;-74
2022/10/25 17:34:33;;;;;;;;;;;13.30;99.90;;;12.08;100.00;95962.63;10541032;28;1977;-73
2022/10/25 17:39:36;;;;;;;;;;;13.20;99.90;;;11.99;100.00;95954.34;10532363;28;1624;-75
2022/10/25 17:44:39;;;;;;;;;;;13.10;99.90;;;11.89;100.00;95951.69;10541234;28;1557;-73
2022/10/25 17:49:42;;;;;;;;;;;13.10;99.90;;;11.88;100.00;95960.84;10543259;28;1109;-75
2022/10/25 17:54:44;;;;;;;;;;;13.10;99.90;;;11.81;100.00;95953.06;10532018;28;1909;-75
2022/10/25 17:59:47;;;;;;;;;;;12.90;99.90;;;11.90;100.00;95959.50;10538501;28;1445;-72
2022/10/25 18:04:50;;;;;;;;;;;12.90;99.90;;;11.84;100.00;95955.22;10538212;28;1616;-73
2022/10/25 18:10:12;;;;;;;;;;;12.90;99.90;;;11.82;100.00;95960.06;10538713;28;1145;-73
2022/10/25 18:15:15;;;;;;;;;;;12.90;99.90;;;11.74;100.00;95951.75;10532839;28;1980;-73
2022/10/25 18:20:18;;;;;;;;;;;12.80;99.90;;;11.58;100.00;95951.81;10543806;28;1203;-74
2022/10/25 18:25:21;;;;;;;;;;;12.70;99.90;;;11.52;100.00;95944.84;10537630;28;1696;-73
2022/10/25 18:30:24;;;;;;;;;;;12.50;99.90;;;11.48;100.00;95954.53;10537973;28;1461;-74
2022/10/25 18:35:27;;;;;;;;;;;12.50;99.90;;;11.44;100.00;95949.97;10510535;28;1971;-73
2022/10/25 18:40:30;;;;;;;;;;;12.60;99.90;;;11.47;100.00;95949.44;10538250;28;1129;-73
2022/10/25 18:45:33;;;;;;;;;;;12.50;99.90;;;11.40;100.00;95946.22;10531656;28;1703;-73
2022/10/25 18:50:35;;;;;;;;;;;12.50;99.90;;;11.28;100.00;95947.34;10537814;28;1208;-73
2022/10/25 18:55:51;;;;;;;;;;;12.40;99.90;;;11.22;100.00;95945.72;10530911;28;1631;-73
2022/10/25 19:00:53;;;;;;;;;;;12.30;99.90;;;11.16;100.00;95932.56;10530041;28;1707;-74
2022/10/25 19:05:57;;;;;;;;;;;12.30;99.90;;;11.34;100.00;95929.28;10532570;28;1699;-73
2022/10/25 19:10:59;;;;;;;;;;;12.30;99.90;;;11.32;100.00;95926.88;10533993;28;1914;-74
2022/10/25 19:16:02;;;;;;;;;;;12.30;99.90;;;11.10;100.00;95931.75;10535569;28;1734;-75
2022/10/25 19:21:05;;;;;;;;;;;12.20;99.90;;;11.23;100.00;95920.44;10537344;28;916;-73
2022/10/25 19:26:10;;;;;;;;;;;12.30;99.90;;;11.17;100.00;95912.66;10538651;28;940;-74
2022/10/25 19:31:13;;;;;;;;;;;12.20;99.90;;;11.16;100.00;95922.59;10528804;28;1983;-73
2022/10/25 19:36:16;;;;;;;;;;;12.20;99.90;;;11.22;100.00;95913.44;10535905;28;1706;-74
2022/10/25 19:41:19;;;;;;;;;;;12.20;99.90;;;11.27;100.00;95908.06;10535977;28;1137;-74
2022/10/25 19:46:22;;;;;;;;;;;12.20;99.90;;;11.37;100.00;95910.69;10529558;28;1719;-73
2022/10/25 19:51:25;;;;;;;;;;;12.30;99.90;;;11.25;100.00;95904.81;10505001;28;1973;-75
2022/10/25 19:56:28;;;;;;;;;;;12.30;99.90;;;11.25;100.00;95896.72;10530489;28;1627;-73
2022/10/25 20:01:32;;;;;;;;;;;12.30;99.90;;;11.21;100.00;95887.63;10530388;28;1197;-71
2022/10/25 20:06:35;;;;;;;;;;;12.20;99.90;;;11.04;100.00;95892.50;10536337;28;1568;-70
2022/10/25 20:11:38;;;;;;;;;;;12.10;99.90;;;11.01;100.00;95899.25;10541389;28;1898;-73
2022/10/25 20:16:41;;;;;;;;;;;12.10;99.90;;;10.97;100.00;95886.63;10541844;28;1628;-72
2022/10/25 20:21:44;;;;;;;;;;;12.00;99.90;;;10.99;100.00;95892.50;10537662;28;1664;-71
2022/10/25 20:26:48;;;;;;;;;;;12.00;99.90;;;10.88;100.00;95905.19;10504903;28;1442;-72
2022/10/25 20:31:51;;;;;;;;;;;11.90;99.90;;;10.89;100.00;95903.31;10531105;28;1981;-71
2022/10/25 20:36:54;;;;;;;;;;;11.80;99.90;;;10.81;100.00;95900.09;10527276;28;1635;-72
2022/10/25 20:41:57;;;;;;;;;;;11.90;99.90;;;10.82;100.00;95890.94;10494963;28;1152;-71
2022/10/25 20:47:00;;;;;;;;;;;11.80;99.90;;;10.85;100.00;95894.16;10521339;28;1624;-75
2022/10/25 20:52:03;;;;;;;;;;;11.90;99.90;;;10.81;100.00;95900.09;10532989;28;1902;-71
2022/10/25 20:57:07;;;;;;;;;;;11.80;99.90;;;10.73;100.00;95897.94;10528408;28;1520;-71
2022/10/25 21:02:10;;;;;;;;;;;11.80;99.90;;;10.70;100.00;95895.00;10532090;28;1220;-70
2022/10/25 21:07:13;;;;;;;;;;;11.70;99.90;;;10.62;100.00;95895.53;10525402;28;1825;-72
2022/10/25 21:12:15;;;;;;;;;;;11.70;99.90;;;10.67;100.00;95887.47;10492995;28;1906;-71
2022/10/25 21:17:18;;;;;;;;;;;11.70;99.90;;;10.62;100.00;95900.91;10533048;28;1213;-72
2022/10/25 21:22:21;;;;;;;;;;;11.70;99.90;;;10.67;100.00;95899.03;10529469;28;1652;-76
2022/10/25 21:27:23;;;;;;;;;;;11.70;99.90;;;10.72;100.00;95877.50;10525289;28;1497;-75
2022/10/25 21:32:28;;;;;;;;;;;11.70;99.90;;;10.70;100.00;95881.56;10532354;28;1907;-72
2022/10/25 21:37:30;;;;;;;;;;;11.70;99.90;;;10.62;100.00;95880.22;10524597;28;1632;-74
2022/10/25 21:42:33;;;;;;;;;;;11.70;99.90;;;10.54;100.00;95884.25;10530926;28;1727;-75
2022/10/25 21:47:36;;;;;;;;;;;11.60;99.90;;;10.51;100.00;95868.69;10525602;28;1130;-74
2022/10/25 21:52:39;;;;;;;;;;;11.50;99.90;;;10.44;100.00;95864.66;10530713;28;1971;-71
2022/10/25 21:57:42;;;;;;;;;;;11.50;99.90;;;10.38;100.00;95863.84;10524604;28;1465;-72
2022/10/25 22:02:44;;;;;;;;;;;11.50;99.90;;;10.34;100.00;95846.66;10531506;28;1118;-71
2022/10/25 22:07:48;;;;;;;;;;;11.40;99.90;;;10.29;100.00;95858.19;10525548;28;1640;-73
2022/10/25 22:12:53;;;;;;;;;;;11.40;99.90;;;10.24;100.00;95842.09;10539614;28;1976;-71
2022/10/25 22:17:56;;;;;;;;;;;11.30;99.90;;;10.18;100.00;95843.16;10538333;28;1727;-75
2022/10/25 22:22:58;;;;;;;;;;;11.30;99.90;;;10.08;100.00;95850.38;10545999;28;1540;-72
2022/10/25 22:28:01;;;;;;;;;;;11.20;99.90;;;10.03;100.00;95845.81;10529176;28;1411;-72
2022/10/25 22:33:04;;;;;;;;;;;11.20;99.90;;;10.02;100.00;95830.78;10539737;28;1910;-71
2022/10/25 22:38:07;;;;;;;;;;;11.10;99.90;;;9.98;100.00;95832.38;10536787;28;1671;-71
2022/10/25 22:43:09;;;;;;;;;;;11.10;99.90;;;10.06;100.00;95839.13;10538326;28;902;-71
2022/10/25 22:48:12;;;;;;;;;;;11.00;99.90;;;10.13;100.00;95845.84;10530565;28;1676;-72
2022/10/25 22:53:15;;;;;;;;;;;11.10;99.90;;;10.13;100.00;95824.34;10534173;28;1918;-71
2022/10/25 22:58:18;;;;;;;;;;;11.10;99.90;;;10.25;100.00;95822.22;10545778;28;1532;-70
2022/10/25 23:03:20;;;;;;;;;;;11.20;99.90;;;10.29;100.00;95827.84;10530145;28;1177;-71